createdAt,value
2023-03-04T00:02:12.808Z,4.38
2023-03-04T00:04:43.480Z,4.38
2023-03-04T00:07:14.243Z,4.28
2023-03-04T00:09:44.997Z,4.02
2023-03-04T00:12:15.766Z,3.91
2023-03-04T00:14:46.591Z,4.10
2023-03-04T00:17:17.318Z,3.98
2023-03-04T00:19:48.067Z,4.20
2023-03-04T00:22:18.844Z,3.94
2023-03-04T00:24:49.272Z,3.84
2023-03-04T00:27:19.775Z,3.93
2023-03-04T00:29:49.876Z,3.97
2023-03-04T00:32:20.840Z,4.08
2023-03-04T00:34:51.427Z,4.16
2023-03-04T00:37:22.284Z,4.37
2023-03-04T00:39:52.950Z,4.37
2023-03-04T00:42:23.546Z,4.27
2023-03-04T00:44:54.196Z,3.86
2023-03-04T00:47:24.685Z,3.95
2023-03-04T00:49:55.435Z,4.18
2023-03-04T00:52:26.203Z,3.91
2023-03-04T00:54:56.967Z,4.22
2023-03-04T00:57:27.741Z,4.11
2023-03-04T00:59:58.155Z,4.19
2023-03-04T01:02:28.973Z,4.36
2023-03-04T01:04:59.679Z,3.96
2023-03-04T01:07:30.456Z,3.96
2023-03-04T01:10:01.206Z,4.02
2023-03-04T01:12:32.021Z,3.99
2023-03-04T01:15:02.746Z,4.24
2023-03-04T01:17:33.608Z,4.36
2023-03-04T01:20:04.275Z,4.55
2023-03-04T01:22:35.050Z,4.52
2023-03-04T01:25:05.796Z,4.42
2023-03-04T01:27:36.576Z,4.37
2023-03-04T01:30:07.044Z,4.49
2023-03-04T01:32:37.892Z,4.60
2023-03-04T01:35:08.593Z,4.51
2023-03-04T01:37:39.345Z,4.69
2023-03-04T01:40:09.836Z,4.68
2023-03-04T01:42:40.606Z,4.63
2023-03-04T01:45:11.350Z,4.65
2023-03-04T01:47:42.193Z,4.80
2023-03-04T01:50:12.845Z,4.41
2023-03-04T01:52:43.778Z,4.54
2023-03-04T01:55:14.368Z,4.54
2023-03-04T01:57:45.126Z,4.59
2023-03-04T02:00:15.880Z,4.55
2023-03-04T02:02:46.629Z,4.55
2023-03-04T02:05:17.375Z,4.47
2023-03-04T02:07:48.168Z,4.40
2023-03-04T02:10:18.879Z,4.10
2023-03-04T02:12:49.649Z,4.46
2023-03-04T02:15:20.417Z,4.38
2023-03-04T02:17:51.194Z,4.47
2023-03-04T02:20:21.943Z,4.29
2023-03-04T02:22:52.662Z,4.29
2023-03-04T02:25:23.433Z,4.47
2023-03-04T02:27:54.264Z,4.55
2023-03-04T02:30:24.950Z,4.49
2023-03-04T02:32:55.831Z,4.34
2023-03-04T02:35:26.546Z,4.12
2023-03-04T02:37:57.281Z,4.34
2023-03-04T02:40:28.066Z,4.32
2023-03-04T02:42:58.848Z,4.29
2023-03-04T02:45:29.574Z,4.28
2023-03-04T02:48:00.360Z,4.25
2023-03-04T02:50:31.110Z,4.25
2023-03-04T02:53:01.898Z,4.41
2023-03-04T02:55:32.666Z,4.43
2023-03-04T02:58:03.436Z,4.60
2023-03-04T03:00:34.178Z,4.47
2023-03-04T03:03:04.672Z,4.74
2023-03-04T03:05:35.337Z,4.64
2023-03-04T03:08:06.199Z,4.49
2023-03-04T03:10:36.845Z,4.37
2023-03-04T03:13:07.605Z,4.49
2023-03-04T03:15:38.360Z,4.63
2023-03-04T03:18:09.347Z,4.57
2023-03-04T03:20:39.862Z,4.61
2023-03-04T03:23:10.647Z,4.41
2023-03-04T03:25:41.380Z,4.39
2023-03-04T03:28:12.147Z,4.17
2023-03-04T03:30:42.900Z,4.38
2023-03-04T03:33:13.390Z,4.18
2023-03-04T03:35:44.175Z,4.14
2023-03-04T03:38:14.906Z,4.05
2023-03-04T03:40:45.443Z,4.32
2023-03-04T03:43:16.151Z,3.95
2023-03-04T03:45:46.971Z,3.96
2023-03-04T03:48:17.710Z,4.13
2023-03-04T03:50:48.119Z,4.05
2023-03-04T03:53:18.922Z,4.32
2023-03-04T03:55:49.719Z,4.22
2023-03-04T03:58:20.444Z,4.23
2023-03-04T04:00:51.251Z,4.09
2023-03-04T04:03:22.017Z,4.29
2023-03-04T04:05:52.755Z,4.00
2023-03-04T04:08:23.542Z,3.99
2023-03-04T04:10:54.308Z,4.03
2023-03-04T04:13:25.085Z,4.25
2023-03-04T04:15:55.853Z,4.36
2023-03-04T04:18:26.619Z,4.42
2023-03-04T04:20:57.371Z,4.36
2023-03-04T04:23:28.213Z,4.28
2023-03-04T04:25:58.925Z,4.45
2023-03-04T04:28:29.409Z,4.31
2023-03-04T04:31:00.316Z,4.43
2023-03-04T04:33:30.927Z,4.48
2023-03-04T04:36:01.682Z,4.59
2023-03-04T04:38:32.432Z,4.50
2023-03-04T04:41:03.257Z,4.46
2023-03-04T04:43:33.932Z,4.46
2023-03-04T04:46:04.813Z,4.67
2023-03-04T04:48:35.443Z,4.69
2023-03-04T04:51:06.188Z,4.56
2023-03-04T04:53:36.941Z,4.54
2023-03-04T04:56:07.790Z,4.46
2023-03-04T04:58:38.450Z,4.55
2023-03-04T05:01:09.330Z,4.69
2023-03-04T05:03:40.024Z,4.68
2023-03-04T05:06:10.697Z,4.66
2023-03-04T05:08:41.571Z,4.69
2023-03-04T05:11:12.268Z,4.69
2023-03-04T05:13:42.671Z,4.71
2023-03-04T05:16:13.474Z,4.57
2023-03-04T05:18:44.172Z,4.71
2023-03-04T05:21:14.895Z,4.34
2023-03-04T05:23:45.637Z,4.54
2023-03-04T05:26:16.391Z,4.62
2023-03-04T05:28:47.231Z,4.48
2023-03-04T05:31:18.076Z,4.57
2023-03-04T05:33:48.703Z,4.52
2023-03-04T05:36:19.412Z,4.62
2023-03-04T05:38:50.176Z,4.63
2023-03-04T05:41:20.943Z,4.63
2023-03-04T05:43:51.709Z,4.70
2023-03-04T05:46:22.593Z,4.64
2023-03-04T05:48:53.216Z,4.60
2023-03-04T05:51:23.949Z,4.55
2023-03-04T05:53:54.764Z,4.53
2023-03-04T05:56:25.499Z,4.61
2023-03-04T05:58:56.223Z,4.47
2023-03-04T06:01:26.967Z,4.60
2023-03-04T06:03:57.848Z,4.58
2023-03-04T06:06:28.133Z,4.53
2023-03-04T06:08:58.892Z,4.60
2023-03-04T06:11:29.639Z,4.60
2023-03-04T06:14:00.500Z,4.62
2023-03-04T06:16:31.181Z,4.41
2023-03-04T06:19:01.936Z,4.53
2023-03-04T06:21:32.670Z,4.62
2023-03-04T06:24:03.551Z,4.53
2023-03-04T06:26:34.194Z,4.66
2023-03-04T06:29:04.954Z,4.71
2023-03-04T06:31:35.713Z,4.71
2023-03-04T06:34:06.513Z,4.68
2023-03-04T06:36:37.234Z,4.45
2023-03-04T06:39:08.061Z,4.52
2023-03-04T06:41:38.706Z,4.49
2023-03-04T06:44:09.473Z,4.57
2023-03-04T06:46:40.291Z,4.52
2023-03-04T06:49:10.823Z,4.51
2023-03-04T06:51:41.481Z,4.32
2023-03-04T06:54:12.259Z,4.45
2023-03-04T06:56:43.008Z,4.40
2023-03-04T06:59:13.498Z,4.43
2023-03-04T07:01:44.262Z,4.37
2023-03-04T07:04:15.144Z,4.39
2023-03-04T07:06:45.790Z,4.46
2023-03-04T07:09:16.562Z,4.47
2023-03-04T07:11:47.289Z,4.48
2023-03-04T07:14:18.135Z,4.56
2023-03-04T07:16:48.475Z,4.48
2023-03-04T07:19:19.203Z,4.56
2023-03-04T07:21:49.936Z,4.53
2023-03-04T07:24:20.695Z,4.50
2023-03-04T07:26:51.436Z,4.53
2023-03-04T07:29:22.205Z,4.51
2023-03-04T07:31:53.822Z,4.38
2023-03-04T07:34:23.711Z,4.18
2023-03-04T07:36:54.461Z,4.39
2023-03-04T07:39:25.222Z,4.33
2023-03-04T07:41:55.992Z,4.28
2023-03-04T07:44:26.473Z,4.23
2023-03-04T07:46:57.233Z,4.39
2023-03-04T07:49:28.015Z,4.35
2023-03-04T07:51:58.754Z,4.46
2023-03-04T07:54:29.592Z,4.45
2023-03-04T07:57:00.265Z,4.49
2023-03-04T07:59:31.037Z,4.36
2023-03-04T08:02:01.840Z,4.53
2023-03-04T08:04:32.609Z,4.48
2023-03-04T08:07:03.327Z,4.37
2023-03-04T08:09:34.096Z,4.25
2023-03-04T08:12:04.869Z,4.27
2023-03-04T08:14:35.669Z,4.38
2023-03-04T08:17:06.425Z,4.34
2023-03-04T08:19:36.936Z,4.53
2023-03-04T08:22:07.679Z,4.45
2023-03-04T08:24:38.080Z,4.34
2023-03-04T08:27:08.858Z,4.40
2023-03-04T08:29:39.617Z,4.50
2023-03-04T08:32:10.539Z,4.49
2023-03-04T08:34:41.128Z,4.58
2023-03-04T08:37:11.893Z,4.70
2023-03-04T08:39:42.640Z,4.68
2023-03-04T08:42:13.406Z,4.68
2023-03-04T08:44:44.142Z,4.78
2023-03-04T08:47:15.014Z,4.85
2023-03-04T08:49:45.637Z,4.78
2023-03-04T08:52:16.407Z,4.54
2023-03-04T08:54:47.217Z,4.61
2023-03-04T08:57:17.936Z,4.72
2023-03-04T08:59:48.699Z,4.50
2023-03-04T09:02:19.460Z,4.15
2023-03-04T09:04:50.203Z,4.42
2023-03-04T09:07:20.685Z,4.46
2023-03-04T09:09:51.517Z,4.43
2023-03-04T09:12:21.502Z,4.60
2023-03-04T09:15:08.357Z,4.84
2023-03-04T09:17:22.238Z,4.73
2023-03-04T09:19:52.975Z,4.67
2023-03-04T09:22:23.728Z,4.85
2023-03-04T09:24:54.185Z,4.68
2023-03-04T09:27:24.955Z,4.64
2023-03-04T09:29:55.743Z,4.90
2023-03-04T09:32:26.120Z,4.76
2023-03-04T09:34:56.838Z,4.85
2023-03-04T09:37:27.630Z,4.88
2023-03-04T09:39:58.335Z,4.81
2023-03-04T09:42:29.087Z,4.61
2023-03-04T09:44:59.823Z,4.71
2023-03-04T09:47:30.672Z,4.74
2023-03-04T09:50:01.323Z,4.80
2023-03-04T09:52:31.787Z,4.81
2023-03-04T09:55:04.694Z,5.06
2023-03-04T09:57:33.110Z,4.91
2023-03-04T10:00:03.804Z,5.10
2023-03-04T10:02:34.452Z,4.99
2023-03-04T10:05:04.956Z,4.84
2023-03-04T10:07:35.578Z,5.07
2023-03-04T10:10:06.348Z,4.87
2023-03-04T10:12:37.047Z,5.13
2023-03-04T10:15:07.782Z,4.85
2023-03-04T10:17:38.548Z,4.87
2023-03-04T10:20:08.992Z,5.12
2023-03-04T10:22:39.817Z,5.26
2023-03-04T10:25:10.489Z,5.08
2023-03-04T10:27:41.219Z,5.15
2023-03-04T10:30:11.922Z,5.11
2023-03-04T10:32:42.822Z,5.07
2023-03-04T10:35:13.359Z,5.26
2023-03-04T10:37:44.077Z,5.10
2023-03-04T10:40:14.791Z,4.88
2023-03-04T10:42:45.645Z,4.75
2023-03-04T10:45:16.252Z,4.80
2023-03-04T10:47:47.110Z,4.55
2023-03-04T10:50:17.742Z,4.62
2023-03-04T10:52:48.452Z,4.72
2023-03-04T10:55:19.181Z,4.67
2023-03-04T10:57:49.946Z,4.79
2023-03-04T11:00:20.711Z,4.79
2023-03-04T11:02:51.405Z,4.75
2023-03-04T11:05:21.402Z,4.70
2023-03-04T11:07:56.278Z,4.71
2023-03-04T11:10:22.227Z,4.85
2023-03-04T11:12:52.563Z,5.05
2023-03-04T11:15:23.397Z,5.07
2023-03-04T11:17:54.029Z,5.06
2023-03-04T11:20:24.739Z,4.86
2023-03-04T11:22:55.581Z,4.91
2023-03-04T11:25:26.179Z,5.03
2023-03-04T11:27:56.919Z,5.14
2023-03-04T11:30:27.676Z,5.07
2023-03-04T11:32:58.422Z,5.08
2023-03-04T11:35:29.147Z,5.22
2023-03-04T11:37:59.909Z,4.98
2023-03-04T11:40:30.625Z,4.90
2023-03-04T11:43:01.379Z,5.02
2023-03-04T11:45:33.921Z,4.85
2023-03-04T11:48:02.990Z,4.75
2023-03-04T11:50:33.597Z,4.69
2023-03-04T11:53:04.318Z,4.87
2023-03-04T11:55:35.050Z,4.69
2023-03-04T11:58:05.768Z,4.62
2023-03-04T12:00:36.493Z,4.41
2023-03-04T12:03:07.263Z,4.07
2023-03-04T12:05:37.983Z,4.22
2023-03-04T12:08:08.718Z,4.13
2023-03-04T12:10:39.090Z,3.97
2023-03-04T12:13:09.855Z,4.18
2023-03-04T12:15:40.362Z,4.31
2023-03-04T12:18:11.145Z,4.41
2023-03-04T12:20:41.805Z,4.46
2023-03-04T12:23:12.304Z,4.68
2023-03-04T12:25:42.668Z,4.75
2023-03-04T12:28:13.424Z,4.78
2023-03-04T12:30:44.259Z,5.10
2023-03-04T12:33:14.919Z,5.26
2023-03-04T12:35:45.669Z,4.97
2023-03-04T12:38:16.371Z,4.77
2023-03-04T12:40:47.079Z,4.74
2023-03-04T12:43:18.080Z,4.83
2023-03-04T12:45:48.605Z,4.94
2023-03-04T12:48:19.003Z,4.85
2023-03-04T12:50:49.774Z,4.87
2023-03-04T12:53:20.169Z,4.81
2023-03-04T12:55:50.889Z,5.02
2023-03-04T12:58:21.628Z,4.79
2023-03-04T13:00:52.353Z,4.67
2023-03-04T13:03:23.327Z,4.86
2023-03-04T13:05:53.975Z,4.61
2023-03-04T13:08:24.537Z,4.39
2023-03-04T13:10:55.358Z,4.43
2023-03-04T13:13:26.014Z,4.38
2023-03-04T13:15:56.932Z,4.22
2023-03-04T13:18:27.230Z,4.22
2023-03-04T13:20:57.961Z,4.41
2023-03-04T13:23:28.684Z,4.39
2023-03-04T13:25:59.393Z,4.47
2023-03-04T13:28:30.266Z,4.34
2023-03-04T13:31:00.949Z,4.01
2023-03-04T13:33:31.694Z,3.65
2023-03-04T13:36:02.338Z,3.83
2023-03-04T13:38:32.946Z,3.37
2023-03-04T13:41:03.704Z,3.47
2023-03-04T13:43:34.562Z,3.51
2023-03-04T13:46:05.259Z,3.53
2023-03-04T13:48:36.063Z,3.66
2023-03-04T13:51:06.833Z,3.71
2023-03-04T13:53:37.704Z,3.94
2023-03-04T13:56:08.448Z,4.06
2023-03-04T13:58:38.996Z,4.10
2023-03-04T14:01:09.639Z,4.20
2023-03-04T14:03:40.451Z,4.13
2023-03-04T14:06:11.143Z,4.27
2023-03-04T14:08:41.901Z,4.13
2023-03-04T14:11:12.656Z,3.82
2023-03-04T14:13:43.444Z,3.73
2023-03-04T14:16:14.222Z,3.81
2023-03-04T14:18:45.064Z,4.25
2023-03-04T14:21:15.715Z,4.59
2023-03-04T14:23:46.497Z,4.61
2023-03-04T14:26:17.254Z,4.65
2023-03-04T14:28:48.028Z,4.42
2023-03-04T14:31:18.658Z,4.34
2023-03-04T14:33:48.636Z,4.45
2023-03-04T14:36:19.003Z,4.55
2023-03-04T14:38:49.801Z,4.65
2023-03-04T14:41:20.369Z,4.42
2023-03-04T14:43:50.978Z,4.38
2023-03-04T14:46:21.722Z,4.40
2023-03-04T14:48:52.502Z,4.26
2023-03-04T14:51:23.227Z,4.14
2023-03-04T14:53:53.987Z,4.36
2023-03-04T14:56:24.789Z,4.48
2023-03-04T14:58:55.514Z,4.39
2023-03-04T15:01:26.303Z,4.41
2023-03-04T15:03:57.106Z,4.43
2023-03-04T15:06:27.798Z,4.34
2023-03-04T15:08:58.623Z,4.34
2023-03-04T15:11:29.321Z,4.50
2023-03-04T15:14:00.111Z,4.37
2023-03-04T15:16:30.937Z,4.43
2023-03-04T15:19:01.728Z,4.36
2023-03-04T15:21:32.353Z,4.29
2023-03-04T15:24:03.129Z,4.43
2023-03-04T15:26:33.888Z,4.23
2023-03-04T15:29:04.656Z,4.33
2023-03-04T15:31:35.414Z,4.32
2023-03-04T15:34:06.178Z,4.15
2023-03-04T15:36:37.017Z,4.27
2023-03-04T15:39:07.398Z,4.10
2023-03-04T15:41:38.169Z,4.19
2023-03-04T15:44:09.068Z,4.02
2023-03-04T15:46:39.722Z,4.06
2023-03-04T15:49:10.427Z,4.13
2023-03-04T15:51:41.177Z,4.00
2023-03-04T15:54:12.029Z,4.00
2023-03-04T15:56:42.171Z,4.02
2023-03-04T15:59:12.866Z,4.01
2023-03-04T16:01:43.810Z,4.05
2023-03-04T16:04:14.520Z,3.82
2023-03-04T16:06:45.153Z,3.78
2023-03-04T16:09:15.925Z,3.66
2023-03-04T16:11:46.679Z,3.38
2023-03-04T16:14:17.447Z,3.32
2023-03-04T16:16:48.257Z,3.33
2023-03-04T16:19:19.004Z,3.36
2023-03-04T16:21:49.763Z,3.36
2023-03-04T16:24:20.596Z,3.25
2023-03-04T16:26:51.342Z,3.42
2023-03-04T16:29:22.156Z,3.41
2023-03-04T16:31:52.953Z,3.44
2023-03-04T16:34:23.736Z,3.62
2023-03-04T16:36:54.511Z,3.68
2023-03-04T16:39:25.324Z,3.40
2023-03-04T16:41:56.095Z,3.36
2023-03-04T16:44:26.917Z,3.84
2023-03-04T16:46:57.696Z,4.04
2023-03-04T16:49:28.499Z,3.85
2023-03-04T16:51:59.268Z,3.64
2023-03-04T16:54:30.089Z,3.85
2023-03-04T16:57:01.056Z,3.90
2023-03-04T16:59:31.653Z,3.77
2023-03-04T17:02:02.522Z,3.39
2023-03-04T17:04:32.948Z,3.29
2023-03-04T17:07:03.753Z,3.24
2023-03-04T17:09:34.529Z,3.20
2023-03-04T17:12:04.972Z,3.07
2023-03-04T17:14:35.766Z,3.10
2023-03-04T17:17:06.670Z,3.32
2023-03-04T17:19:37.360Z,3.11
2023-03-04T17:22:08.156Z,2.98
2023-03-04T17:24:38.946Z,3.11
2023-03-04T17:27:09.805Z,2.98
2023-03-04T17:29:40.541Z,3.03
2023-03-04T17:32:11.399Z,3.02
2023-03-04T17:34:42.158Z,3.07
2023-03-04T17:37:12.965Z,3.13
2023-03-04T17:39:43.821Z,3.32
2023-03-04T17:42:14.591Z,3.53
2023-03-04T17:44:45.447Z,3.48
2023-03-04T17:47:16.252Z,3.64
2023-03-04T17:49:46.770Z,3.76
2023-03-04T17:52:17.578Z,3.88
2023-03-04T17:54:48.387Z,3.45
2023-03-04T17:57:19.172Z,3.54
2023-03-04T17:59:49.961Z,3.40
2023-03-04T18:02:20.794Z,3.60
2023-03-04T18:04:51.565Z,3.47
2023-03-04T18:07:21.717Z,3.75
2023-03-04T18:09:52.522Z,3.79
2023-03-04T18:12:23.322Z,3.71
2023-03-04T18:14:54.068Z,3.66
2023-03-04T18:17:24.720Z,3.68
2023-03-04T18:19:55.085Z,3.72
2023-03-04T18:22:25.978Z,3.52
2023-03-04T18:24:56.672Z,3.58
2023-03-04T18:27:27.142Z,3.49
2023-03-04T18:29:57.969Z,3.38
2023-03-04T18:32:28.547Z,3.48
2023-03-04T18:34:59.202Z,3.42
2023-03-04T18:37:29.990Z,3.27
2023-03-04T18:40:00.790Z,2.97
2023-03-04T18:42:31.601Z,3.11
2023-03-04T18:45:02.400Z,2.89
2023-03-04T18:47:33.241Z,2.97
2023-03-04T18:50:04.028Z,2.69
2023-03-04T18:52:34.894Z,2.76
2023-03-04T18:55:05.382Z,2.81
2023-03-04T18:57:36.257Z,3.09
2023-03-04T19:00:06.999Z,3.14
2023-03-04T19:02:38.004Z,3.14
2023-03-04T19:05:08.261Z,3.27
2023-03-04T19:07:39.187Z,3.36
2023-03-04T19:10:09.617Z,3.40
2023-03-04T19:12:40.435Z,3.29
2023-03-04T19:15:11.232Z,3.53
2023-03-04T19:17:42.055Z,3.57
2023-03-04T19:20:12.836Z,3.69
2023-03-04T19:22:43.641Z,3.57
2023-03-04T19:25:14.447Z,3.61
2023-03-04T19:27:45.234Z,3.54
2023-03-04T19:30:16.024Z,3.48
2023-03-04T19:32:46.853Z,3.33
2023-03-04T19:35:17.633Z,3.18
2023-03-04T19:37:48.506Z,3.25
2023-03-04T19:40:18.953Z,3.32
2023-03-04T19:42:49.434Z,3.35
2023-03-04T19:45:20.315Z,3.23
2023-03-04T19:47:51.079Z,3.26
2023-03-04T19:50:21.871Z,3.30
2023-03-04T19:52:52.713Z,3.38
2023-03-04T19:55:23.520Z,3.47
2023-03-04T19:57:54.338Z,3.46
2023-03-04T20:00:25.178Z,3.55
2023-03-04T20:02:55.955Z,3.36
2023-03-04T20:05:26.790Z,3.50
2023-03-04T20:07:57.637Z,3.63
2023-03-04T20:10:28.092Z,3.74
2023-03-04T20:12:58.901Z,3.84
2023-03-04T20:15:29.732Z,3.79
2023-03-04T20:18:00.588Z,3.76
2023-03-04T20:20:31.283Z,3.88
2023-03-04T20:23:02.083Z,3.62
2023-03-04T20:25:32.865Z,3.70
2023-03-04T20:28:03.712Z,3.70
2023-03-04T20:30:34.437Z,3.70
2023-03-04T20:33:04.999Z,3.86
2023-03-04T20:35:35.814Z,3.87
2023-03-04T20:38:06.649Z,3.73
2023-03-04T20:40:37.049Z,3.62
2023-03-04T20:43:07.894Z,3.48
2023-03-04T20:45:38.590Z,3.38
2023-03-04T20:48:09.401Z,3.34
2023-03-04T20:50:40.194Z,3.27
2023-03-04T20:53:11.046Z,3.23
2023-03-04T20:55:41.875Z,3.24
2023-03-04T20:58:12.632Z,3.24
2023-03-04T21:00:43.433Z,3.27
2023-03-04T21:03:14.251Z,3.35
2023-03-04T21:05:45.029Z,3.42
2023-03-04T21:08:15.856Z,3.44
2023-03-04T21:10:46.641Z,3.46
2023-03-04T21:13:17.509Z,3.47
2023-03-04T21:15:48.323Z,3.50
2023-03-04T21:18:19.057Z,3.55
2023-03-04T21:20:49.837Z,3.59
2023-03-04T21:23:20.645Z,3.53
2023-03-04T21:25:51.432Z,3.58
2023-03-04T21:28:22.240Z,3.53
2023-03-04T21:30:52.755Z,3.58
2023-03-04T21:33:23.611Z,3.54
2023-03-04T21:35:54.403Z,3.57
2023-03-04T21:38:25.190Z,3.60
2023-03-04T21:40:55.992Z,3.60
2023-03-04T21:43:26.817Z,3.58
2023-03-04T21:45:57.603Z,3.53
2023-03-04T21:48:28.568Z,3.54
2023-03-04T21:50:59.286Z,3.54
2023-03-04T21:53:30.062Z,3.57
2023-03-04T21:56:00.842Z,3.58
2023-03-04T21:58:31.649Z,3.55
2023-03-04T22:01:02.505Z,3.53
2023-03-04T22:03:32.981Z,3.55
2023-03-04T22:06:03.817Z,3.39
2023-03-04T22:08:34.577Z,3.39
2023-03-04T22:11:05.378Z,3.39
2023-03-04T22:13:36.211Z,3.28
2023-03-04T22:16:07.065Z,3.33
2023-03-04T22:18:39.571Z,3.35
2023-03-04T22:21:08.642Z,3.37
2023-03-04T22:23:39.554Z,3.43
2023-03-04T22:26:10.249Z,3.43
2023-03-04T22:28:41.062Z,3.23
2023-03-04T22:31:11.874Z,3.21
2023-03-04T22:33:42.352Z,3.25
2023-03-04T22:36:13.151Z,3.29
2023-03-04T22:38:43.701Z,3.28
2023-03-04T22:41:14.496Z,3.27
2023-03-04T22:43:45.330Z,3.26
2023-03-04T22:46:15.841Z,3.29
2023-03-04T22:48:46.682Z,3.37
2023-03-04T22:51:17.544Z,3.35
2023-03-04T22:53:48.290Z,3.39
2023-03-04T22:56:19.098Z,3.29
2023-03-04T22:58:49.918Z,3.17
2023-03-04T23:01:20.755Z,3.17
2023-03-04T23:03:51.626Z,3.19
2023-03-04T23:06:22.361Z,3.23
2023-03-04T23:08:53.272Z,3.18
2023-03-04T23:11:24.032Z,3.16
2023-03-04T23:13:54.821Z,3.10
2023-03-04T23:16:25.667Z,3.09
2023-03-04T23:18:59.188Z,3.09
2023-03-04T23:21:27.275Z,3.17
2023-03-04T23:23:58.084Z,3.14
2023-03-04T23:26:28.922Z,3.06
2023-03-04T23:28:59.699Z,3.09
2023-03-04T23:31:30.485Z,3.18
2023-03-04T23:34:01.328Z,3.24
2023-03-04T23:36:32.171Z,3.20
2023-03-04T23:39:02.962Z,3.18
2023-03-04T23:41:33.763Z,3.17
2023-03-04T23:44:04.606Z,3.19
2023-03-04T23:46:35.554Z,3.17
2023-03-04T23:49:06.264Z,3.12
2023-03-04T23:51:37.080Z,2.92
2023-03-04T23:54:08.054Z,3.05
2023-03-04T23:56:38.749Z,3.05
2023-03-04T23:59:09.607Z,2.92
